createdAt,value
2023-02-28T06:19:28.322Z,0.06
2023-02-28T06:29:28.346Z,0.00
2023-02-28T06:39:28.519Z,0.00
2023-02-28T06:49:28.479Z,2.90
2023-02-28T06:59:28.559Z,1.48
2023-02-28T07:09:28.372Z,0.43
2023-02-28T07:19:28.552Z,0.00
2023-02-28T07:29:28.505Z,0.00
2023-02-28T07:39:28.446Z,0.01
2023-02-28T07:49:28.592Z,0.37
2023-02-28T07:59:31.171Z,0.63
2023-02-28T08:09:28.413Z,0.51
2023-02-28T08:19:28.570Z,2.87
2023-02-28T08:29:28.500Z,2.37
2023-02-28T08:39:28.513Z,2.52
2023-02-28T08:49:28.541Z,3.60
2023-02-28T08:59:28.505Z,6.50
2023-02-28T09:09:28.531Z,7.70
2023-02-28T09:19:28.512Z,14.60
2023-02-28T09:29:28.461Z,16.87
2023-02-28T09:39:28.547Z,12.52
2023-02-28T09:49:29.100Z,11.95
2023-02-28T09:59:28.659Z,16.74
2023-02-28T10:09:28.878Z,20.83
2023-02-28T10:19:28.815Z,20.50
2023-02-28T10:29:28.978Z,19.68
2023-02-28T10:39:28.741Z,21.22
2023-02-28T10:49:29.023Z,19.66
2023-02-28T10:59:28.847Z,19.55
2023-02-28T11:09:28.817Z,20.16
2023-02-28T11:19:28.866Z,18.58
2023-02-28T11:29:28.832Z,17.84
2023-02-28T11:39:28.970Z,19.70
2023-02-28T11:49:29.018Z,19.12
2023-02-28T11:59:28.986Z,19.17
2023-02-28T12:09:28.945Z,19.04
2023-02-28T12:19:28.849Z,19.64
2023-02-28T12:29:28.886Z,15.91
2023-02-28T12:39:30.098Z,18.94
2023-02-28T12:49:28.954Z,20.05
2023-02-28T12:59:29.026Z,16.88
2023-02-28T13:09:29.048Z,16.49
2023-02-28T13:19:29.059Z,15.85
2023-02-28T13:29:29.145Z,17.15
2023-02-28T13:39:28.892Z,13.89
2023-02-28T13:49:28.918Z,19.39
2023-02-28T13:59:29.101Z,12.38
2023-02-28T14:09:30.052Z,16.57
2023-02-28T14:19:28.974Z,19.88
2023-02-28T14:29:29.006Z,18.62
2023-02-28T14:39:29.176Z,17.22
2023-02-28T14:49:29.088Z,13.77
2023-02-28T14:59:29.199Z,10.88
2023-02-28T15:09:29.022Z,11.56
2023-02-28T15:19:29.075Z,17.12
2023-02-28T15:29:30.099Z,13.49
2023-02-28T15:39:29.079Z,8.06
2023-02-28T15:49:29.061Z,6.21
2023-02-28T15:59:29.119Z,10.17
2023-02-28T16:09:29.153Z,9.84
2023-02-28T16:19:29.188Z,9.11
2023-02-28T16:29:29.213Z,8.86
2023-02-28T16:39:29.225Z,9.16
2023-02-28T16:49:29.162Z,6.94
2023-02-28T16:59:29.185Z,4.85
2023-02-28T17:09:41.284Z,1.08
2023-02-28T17:19:29.282Z,0.00
2023-02-28T17:29:29.300Z,0.00
2023-02-28T17:39:29.198Z,0.00
2023-02-28T17:49:29.316Z,0.00
2023-02-28T17:59:29.197Z,2.11
2023-02-28T18:09:29.139Z,0.00
2023-02-28T18:19:29.278Z,0.00
2023-02-28T18:29:29.332Z,0.00
2023-02-28T18:39:29.510Z,0.00
2023-02-28T18:49:29.761Z,0.00
2023-02-28T18:59:29.662Z,0.00
2023-02-28T19:09:29.673Z,0.01
2023-02-28T19:19:29.652Z,0.00
